Time;durP1;ratioP1;P1;durP2;ratioP2;P2;SDS_P1;SDS_P2;PMS_P1;PMS_P2;Temp;Humidity;BMP_temperature;BMP_pressure;BME280_temperature;BME280_humidity;BME280_pressure;Samples;Min_cycle;Max_cycle;Signal;HPM_P1;HPM_P2
2021/08/22 00:02:20;;;;;;;5.23;4.83;;;27.50;54.00;;;;;;5024491;28;20418;-77
2021/08/22 00:05:08;;;;;;;5.77;5.37;;;27.50;54.10;;;;;;5025649;28;20458;-77
2021/08/22 00:07:44;;;;;;;5.30;4.90;;;27.50;54.10;;;;;;5020617;28;20546;-77
2021/08/22 00:10:16;;;;;;;5.67;5.27;;;27.40;54.10;;;;;;5028009;28;20432;-78
2021/08/22 00:12:51;;;;;;;5.90;5.40;;;27.40;54.10;;;;;;5026867;28;20488;-79
2021/08/22 00:15:23;;;;;;;5.27;4.87;;;27.40;54.10;;;;;;5032680;28;20447;-77
2021/08/22 00:17:51;;;;;;;5.60;5.20;;;27.40;54.20;;;;;;5027200;28;20489;-77
2021/08/22 00:20:21;;;;;;;5.53;5.03;;;27.40;54.20;;;;;;5029598;28;20422;-76
2021/08/22 00:22:49;;;;;;;4.87;4.57;;;27.40;54.20;;;;;;5024211;28;20570;-77
2021/08/22 00:25:18;;;;;;;5.97;5.47;;;27.40;54.30;;;;;;5025158;28;20459;-77
2021/08/22 00:27:46;;;;;;;5.30;4.90;;;27.30;54.30;;;;;;5024836;28;20448;-77
2021/08/22 00:30:14;;;;;;;4.87;4.47;;;27.30;54.20;;;;;;5025208;28;20489;-77
2021/08/22 00:32:43;;;;;;;5.70;4.90;;;27.30;54.30;;;;;;5029080;28;20466;-76
2021/08/22 00:35:12;;;;;;;9.13;5.20;;;27.30;54.30;;;;;;5027540;28;20472;-77
2021/08/22 00:37:40;;;;;;;5.43;5.00;;;27.30;54.40;;;;;;5029898;28;20522;-77
2021/08/22 00:40:08;;;;;;;6.17;5.67;;;27.20;54.40;;;;;;5027875;28;20518;-77
2021/08/22 00:42:36;;;;;;;5.43;5.03;;;27.20;54.40;;;;;;5036038;28;20430;-76
2021/08/22 00:45:05;;;;;;;5.60;5.20;;;27.20;54.40;;;;;;5030370;28;20441;-76
2021/08/22 00:47:33;;;;;;;5.37;4.97;;;27.20;54.40;;;;;;5027626;28;20410;-77
2021/08/22 00:50:03;;;;;;;5.57;5.17;;;27.20;54.40;;;;;;5025424;28;20414;-77
2021/08/22 00:52:32;;;;;;;5.00;4.70;;;27.10;54.40;;;;;;5032612;28;20493;-76
2021/08/22 00:55:02;;;;;;;5.70;5.23;;;27.20;55.10;;;;;;5027081;28;20410;-77
2021/08/22 00:57:31;;;;;;;5.33;4.93;;;27.10;54.50;;;;;;5025594;28;20444;-76
2021/08/22 00:59:59;;;;;;;5.60;5.10;;;27.10;54.40;;;;;;5027642;28;20418;-76
2021/08/22 01:02:30;;;;;;;5.90;5.27;;;27.10;54.50;;;;;;5029694;28;20447;-76
2021/08/22 01:05:04;;;;;;;5.03;4.70;;;27.10;54.50;;;;;;5034763;28;20413;-76
2021/08/22 01:07:35;;;;;;;5.27;4.87;;;27.10;54.50;;;;;;5036018;28;20410;-76
2021/08/22 01:10:05;;;;;;;5.47;5.10;;;27.10;54.50;;;;;;5034252;28;20499;-76
2021/08/22 01:12:35;;;;;;;5.83;5.33;;;27.00;54.50;;;;;;5028690;28;20449;-76
2021/08/22 01:15:06;;;;;;;5.03;4.73;;;27.10;54.60;;;;;;5033763;28;20437;-77
2021/08/22 01:17:34;;;;;;;5.57;5.07;;;27.10;54.60;;;;;;5024234;28;20518;-77
2021/08/22 01:20:06;;;;;;;5.43;5.03;;;27.00;54.50;;;;;;5032621;28;20418;-77
2021/08/22 01:22:34;;;;;;;5.70;5.17;;;27.00;54.50;;;;;;5028151;28;20410;-77
2021/08/22 01:25:03;;;;;;;5.47;5.07;;;27.00;54.60;;;;;;5033615;28;20489;-77
2021/08/22 01:27:31;;;;;;;4.67;4.37;;;27.00;54.60;;;;;;5033384;28;20525;-77
2021/08/22 01:30:01;;;;;;;4.87;4.57;;;27.00;54.60;;;;;;5035720;28;20443;-77
2021/08/22 01:32:37;;;;;;;4.23;4.03;;;27.00;54.70;;;;;;5030964;28;20517;-77
2021/08/22 01:35:06;;;;;;;5.03;4.73;;;27.00;54.70;;;;;;5021792;28;20474;-77
2021/08/22 01:37:34;;;;;;;6.40;5.33;;;26.90;54.60;;;;;;5007657;28;20490;-78
2021/08/22 01:40:03;;;;;;;5.17;4.67;;;26.90;54.60;;;;;;5024509;28;20444;-78
2021/08/22 01:42:34;;;;;;;6.00;4.97;;;26.90;54.60;;;;;;5024455;28;20494;-80
2021/08/22 01:45:02;;;;;;;5.10;4.70;;;26.90;54.60;;;;;;5023979;28;20513;-79
2021/08/22 01:47:30;;;;;;;4.73;4.43;;;26.90;54.60;;;;;;5023408;28;20445;-78
2021/08/22 01:50:00;;;;;;;4.83;4.50;;;26.90;54.60;;;;;;5025003;28;20422;-78
2021/08/22 01:52:27;;;;;;;4.07;3.87;;;26.90;54.70;;;;;;5024446;28;20437;-79
2021/08/22 01:54:55;;;;;;;5.10;4.60;;;26.90;54.70;;;;;;5023912;28;20442;-78
2021/08/22 01:57:23;;;;;;;5.80;5.40;;;26.80;54.90;;;;;;5023795;28;20426;-79
2021/08/22 01:59:51;;;;;;;5.07;4.77;;;26.90;54.70;;;;;;5024064;28;20473;-78
2021/08/22 02:02:19;;;;;;;5.23;4.83;;;26.80;54.70;;;;;;5025229;28;20422;-78
2021/08/22 02:04:48;;;;;;;5.20;4.70;;;26.80;54.70;;;;;;5037024;28;20458;-78
2021/08/22 02:07:19;;;;;;;5.20;4.83;;;26.80;54.80;;;;;;5031553;28;20426;-78
2021/08/22 02:09:50;;;;;;;8.30;4.90;;;26.80;54.80;;;;;;5024602;28;20520;-79
2021/08/22 02:12:20;;;;;;;5.10;4.70;;;26.80;55.40;;;;;;5033980;28;20454;-78
2021/08/22 02:14:53;;;;;;;5.20;4.90;;;26.70;54.80;;;;;;5029312;28;20421;-78
2021/08/22 02:17:34;;;;;;;4.83;4.43;;;26.70;54.70;;;;;;5029529;28;20443;-78
2021/08/22 02:20:02;;;;;;;5.13;4.77;;;26.70;54.80;;;;;;5033755;28;20495;-78
2021/08/22 02:22:32;;;;;;;4.90;4.40;;;26.70;54.80;;;;;;5032692;28;20492;-78
2021/08/22 02:25:00;;;;;;;5.60;5.10;;;26.70;54.70;;;;;;5030930;28;20406;-79
2021/08/22 02:27:28;;;;;;;4.90;4.50;;;26.70;54.80;;;;;;5029982;28;20421;-78
2021/08/22 02:29:56;;;;;;;5.00;4.50;;;26.60;54.80;;;;;;5030678;28;20437;-79
2021/08/22 02:32:24;;;;;;;5.33;4.93;;;26.60;54.80;;;;;;5030277;28;20475;-79
2021/08/22 02:34:52;;;;;;;4.80;4.50;;;26.70;54.90;;;;;;5030273;28;20410;-78
2021/08/22 02:37:20;;;;;;;4.80;4.50;;;26.60;54.80;;;;;;5029835;28;20431;-78
2021/08/22 02:39:50;;;;;;;5.03;4.70;;;26.60;54.90;;;;;;5029728;28;20453;-78
2021/08/22 02:42:18;;;;;;;4.70;4.40;;;26.70;54.90;;;;;;5029804;28;20437;-78
2021/08/22 02:44:46;;;;;;;4.80;4.50;;;26.60;54.80;;;;;;5029787;28;20472;-78
2021/08/22 02:47:15;;;;;;;5.07;4.77;;;26.60;54.80;;;;;;5029906;28;20436;-78
2021/08/22 02:49:43;;;;;;;4.90;4.60;;;26.60;54.80;;;;;;5029793;28;20417;-78
2021/08/22 02:52:11;;;;;;;4.80;4.50;;;26.60;54.80;;;;;;5029593;28;20445;-78
2021/08/22 02:54:39;;;;;;;5.00;4.70;;;26.60;54.90;;;;;;5029861;28;20476;-78
2021/08/22 02:57:08;;;;;;;5.77;5.27;;;26.60;54.80;;;;;;5025546;28;20479;-78
2021/08/22 02:59:36;;;;;;;5.33;4.57;;;26.60;54.80;;;;;;5029630;28;20441;-78
2021/08/22 03:02:05;;;;;;;4.47;4.17;;;26.60;54.90;;;;;;5030093;28;20443;-78
2021/08/22 03:04:33;;;;;;;5.00;4.70;;;26.50;54.90;;;;;;5029983;28;20447;-78
2021/08/22 03:07:01;;;;;;;4.60;4.30;;;26.60;54.90;;;;;;5030456;28;20410;-78
2021/08/22 03:09:29;;;;;;;5.20;4.77;;;26.60;54.90;;;;;;5030152;28;20422;-78
2021/08/22 03:11:57;;;;;;;5.10;4.70;;;26.50;54.90;;;;;;5022584;28;20459;-78
2021/08/22 03:14:26;;;;;;;4.70;4.40;;;26.50;54.90;;;;;;5027226;28;20444;-78
2021/08/22 03:16:55;;;;;;;4.93;4.53;;;26.50;54.90;;;;;;5026906;28;20453;-78
2021/08/22 03:19:23;;;;;;;4.60;4.30;;;26.50;54.90;;;;;;5026859;28;20498;-79
2021/08/22 03:21:51;;;;;;;4.90;4.50;;;26.50;54.90;;;;;;5027146;28;20447;-79
2021/08/22 03:24:19;;;;;;;4.97;4.53;;;26.50;54.90;;;;;;5026813;28;20477;-78
2021/08/22 03:26:48;;;;;;;4.93;4.63;;;26.40;54.80;;;;;;5026675;28;20451;-79
2021/08/22 03:29:16;;;;;;;5.03;4.50;;;26.40;54.90;;;;;;5026611;28;20530;-79
2021/08/22 03:31:45;;;;;;;4.90;4.60;;;26.40;54.90;;;;;;5027197;28;20518;-78
2021/08/22 03:34:13;;;;;;;4.63;4.33;;;26.40;54.90;;;;;;5026817;28;20500;-79
2021/08/22 03:36:41;;;;;;;5.30;4.90;;;26.40;54.90;;;;;;5027004;28;20421;-79
2021/08/22 03:39:09;;;;;;;5.03;4.73;;;26.40;54.80;;;;;;5025663;28;20475;-78
2021/08/22 03:41:37;;;;;;;4.57;4.20;;;26.40;54.90;;;;;;5026486;28;20414;-78
2021/08/22 03:44:05;;;;;;;4.60;4.30;;;26.40;54.90;;;;;;5026263;28;20455;-78
2021/08/22 03:46:34;;;;;;;5.00;4.60;;;26.40;54.90;;;;;;5026331;28;20407;-79
2021/08/22 03:49:03;;;;;;;4.93;4.53;;;26.40;55.00;;;;;;5025890;28;20410;-79
2021/08/22 03:51:31;;;;;;;4.50;4.10;;;26.40;55.00;;;;;;5025931;28;20443;-79
2021/08/22 03:53:59;;;;;;;5.00;4.60;;;26.30;55.00;;;;;;5025950;28;20407;-79
2021/08/22 03:56:27;;;;;;;4.13;3.93;;;26.30;54.90;;;;;;5025973;28;20426;-79
2021/08/22 03:58:55;;;;;;;4.63;4.23;;;26.30;54.90;;;;;;5025653;28;20450;-79
2021/08/22 04:01:23;;;;;;;4.50;4.03;;;26.30;55.00;;;;;;5024209;28;20534;-76
2021/08/22 04:03:52;;;;;;;4.30;4.00;;;26.30;55.00;;;;;;5025798;28;20455;-76
2021/08/22 04:06:24;;;;;;;4.47;4.10;;;26.30;55.00;;;;;;5036433;28;20424;-76
2021/08/22 04:08:52;;;;;;;5.07;4.50;;;26.30;55.00;;;;;;5024810;28;20426;-76
2021/08/22 04:11:20;;;;;;;4.00;3.60;;;26.30;54.90;;;;;;5020270;28;20468;-76
2021/08/22 04:13:48;;;;;;;3.63;3.40;;;26.30;55.10;;;;;;5026542;28;20427;-76
2021/08/22 04:16:16;;;;;;;4.67;4.37;;;26.20;55.10;;;;;;5025216;28;20448;-76
2021/08/22 04:18:44;;;;;;;4.73;4.27;;;26.20;55.10;;;;;;5025373;28;20439;-76
2021/08/22 04:21:13;;;;;;;4.03;3.73;;;26.20;55.00;;;;;;5025632;28;20450;-76
2021/08/22 04:23:42;;;;;;;4.47;4.17;;;26.20;55.00;;;;;;5025803;28;20513;-76
2021/08/22 04:26:10;;;;;;;3.93;3.73;;;26.20;55.00;;;;;;5025080;28;20414;-76
2021/08/22 04:28:38;;;;;;;4.43;4.00;;;26.20;55.10;;;;;;5025573;28;20587;-76
2021/08/22 04:31:06;;;;;;;4.90;4.50;;;26.20;55.00;;;;;;5025911;28;20436;-76
2021/08/22 04:33:34;;;;;;;4.77;4.37;;;26.20;55.00;;;;;;5025590;28;20421;-76
2021/08/22 04:36:02;;;;;;;4.77;4.40;;;26.20;55.00;;;;;;5025868;28;20475;-76
2021/08/22 04:38:30;;;;;;;4.23;3.93;;;26.20;55.10;;;;;;5025546;28;20480;-76
2021/08/22 04:40:59;;;;;;;5.00;4.50;;;26.20;55.10;;;;;;5025468;28;20541;-76
2021/08/22 04:43:27;;;;;;;4.20;3.97;;;26.20;55.00;;;;;;5025452;28;20438;-76
2021/08/22 04:45:55;;;;;;;4.80;4.50;;;26.20;55.10;;;;;;5025361;28;20523;-76
2021/08/22 04:48:23;;;;;;;4.40;4.10;;;26.20;55.20;;;;;;5025571;28;20523;-76
2021/08/22 04:50:51;;;;;;;4.27;3.97;;;26.20;55.10;;;;;;5025354;28;20410;-76
2021/08/22 04:53:19;;;;;;;4.07;3.87;;;26.20;55.10;;;;;;5025369;28;20527;-76
2021/08/22 04:55:47;;;;;;;4.53;4.13;;;26.20;55.20;;;;;;5025368;28;20515;-76
2021/08/22 04:58:16;;;;;;;4.90;4.50;;;26.20;55.10;;;;;;5025002;28;20409;-76
2021/08/22 05:00:45;;;;;;;4.70;4.40;;;26.20;55.20;;;;;;5025133;28;20453;-76
2021/08/22 05:03:13;;;;;;;4.30;4.00;;;26.20;55.20;;;;;;5025268;28;20502;-76
2021/08/22 05:05:41;;;;;;;4.20;4.00;;;26.20;55.10;;;;;;5024819;28;20432;-76
2021/08/22 05:08:09;;;;;;;4.30;3.90;;;26.20;55.20;;;;;;5024804;28;20534;-76
2021/08/22 05:10:37;;;;;;;3.90;3.60;;;26.10;55.10;;;;;;5024840;28;20463;-76
2021/08/22 05:13:05;;;;;;;4.10;3.80;;;26.10;55.20;;;;;;5024635;28;20443;-77
2021/08/22 05:15:35;;;;;;;4.10;3.80;;;26.10;55.20;;;;;;5024511;28;20444;-76
2021/08/22 05:18:03;;;;;;;4.23;4.03;;;26.10;55.20;;;;;;5023174;28;20475;-77
2021/08/22 05:20:31;;;;;;;3.97;3.70;;;26.10;55.20;;;;;;5024103;28;20475;-76
2021/08/22 05:22:59;;;;;;;4.40;4.10;;;26.10;55.20;;;;;;5024511;28;20439;-76
2021/08/22 05:25:27;;;;;;;4.13;3.90;;;26.10;55.30;;;;;;5025130;28;20525;-76
2021/08/22 05:27:55;;;;;;;3.70;3.50;;;26.10;55.30;;;;;;5024419;28;20545;-76
2021/08/22 05:30:23;;;;;;;4.33;4.03;;;26.10;55.40;;;;;;5024673;28;20463;-76
2021/08/22 05:32:52;;;;;;;3.77;3.50;;;26.10;55.20;;;;;;5024515;28;20502;-77
2021/08/22 05:35:21;;;;;;;4.03;3.83;;;26.00;55.20;;;;;;5024587;28;20455;-76
2021/08/22 05:37:49;;;;;;;3.83;3.63;;;26.00;55.30;;;;;;5023617;28;20410;-76
2021/08/22 05:40:16;;;;;;;3.90;3.60;;;26.00;55.30;;;;;;5024308;28;20443;-76
2021/08/22 05:42:44;;;;;;;4.03;3.77;;;26.00;55.30;;;;;;5024272;28;20473;-77
2021/08/22 05:45:12;;;;;;;4.13;3.93;;;26.00;55.30;;;;;;5024431;28;20432;-76
2021/08/22 05:47:40;;;;;;;4.97;4.10;;;26.00;55.40;;;;;;5024322;28;20517;-76
2021/08/22 05:50:10;;;;;;;4.97;4.03;;;26.00;55.30;;;;;;5024979;28;20526;-76
2021/08/22 05:52:37;;;;;;;4.07;3.87;;;26.00;55.40;;;;;;5024318;28;20444;-76
2021/08/22 05:55:06;;;;;;;4.00;3.70;;;26.00;55.40;;;;;;5024179;28;20439;-76
2021/08/22 05:57:34;;;;;;;4.00;3.80;;;26.00;55.50;;;;;;5023882;28;20471;-76
2021/08/22 06:00:02;;;;;;;4.30;4.00;;;26.00;55.40;;;;;;5021930;28;20476;-76
2021/08/22 06:02:30;;;;;;;4.43;4.13;;;26.00;55.40;;;;;;5021039;28;20419;-76
2021/08/22 06:04:58;;;;;;;3.77;3.57;;;26.10;55.40;;;;;;5023489;28;20514;-77
2021/08/22 06:07:27;;;;;;;4.33;3.93;;;26.00;55.30;;;;;;5023067;28;20453;-76
2021/08/22 06:09:56;;;;;;;3.90;3.70;;;26.00;55.30;;;;;;5023717;28;20426;-76
2021/08/22 06:12:27;;;;;;;5.00;4.50;;;26.00;55.40;;;;;;5023553;28;20471;-76
2021/08/22 06:14:55;;;;;;;4.03;3.83;;;26.00;55.40;;;;;;5021181;28;20466;-77
2021/08/22 06:17:22;;;;;;;3.60;3.40;;;26.00;55.30;;;;;;5022981;28;20516;-77
2021/08/22 06:19:52;;;;;;;4.03;3.83;;;26.00;55.40;;;;;;5020045;28;20446;-76
2021/08/22 06:22:20;;;;;;;4.13;3.83;;;26.00;55.40;;;;;;5023234;28;20467;-76
2021/08/22 06:24:49;;;;;;;4.00;3.80;;;26.00;55.40;;;;;;5023361;28;20417;-77
2021/08/22 06:27:17;;;;;;;3.80;3.60;;;26.00;55.40;;;;;;5023829;28;20407;-76
2021/08/22 06:29:45;;;;;;;3.77;3.57;;;26.00;55.40;;;;;;5023632;28;20427;-76
2021/08/22 06:32:18;;;;;;;4.23;3.93;;;26.00;55.30;;;;;;5023736;28;20431;-76
2021/08/22 06:34:46;;;;;;;4.10;3.90;;;26.00;55.30;;;;;;5022903;28;20440;-76
2021/08/22 06:37:14;;;;;;;3.80;3.60;;;26.00;55.30;;;;;;5023412;28;20447;-76
2021/08/22 06:39:42;;;;;;;4.00;3.80;;;26.00;55.30;;;;;;5023487;28;20406;-78
2021/08/22 06:42:13;;;;;;;4.03;3.80;;;25.90;55.30;;;;;;5020782;28;20449;-77
2021/08/22 06:44:42;;;;;;;3.87;3.67;;;26.00;55.40;;;;;;5022794;28;20422;-77
2021/08/22 06:47:10;;;;;;;4.30;4.03;;;25.90;55.40;;;;;;5023391;28;20402;-77
2021/08/22 06:49:38;;;;;;;3.50;3.20;;;25.90;55.40;;;;;;5023253;28;20410;-77
2021/08/22 06:52:07;;;;;;;3.60;3.40;;;25.90;55.40;;;;;;5027036;28;20439;-77
2021/08/22 06:54:35;;;;;;;3.50;3.30;;;25.90;55.40;;;;;;5024532;28;20444;-77
2021/08/22 06:57:04;;;;;;;3.90;3.70;;;26.00;55.40;;;;;;5026651;28;20399;-77
2021/08/22 06:59:33;;;;;;;3.60;3.40;;;26.00;55.40;;;;;;5026285;28;20451;-77
2021/08/22 07:02:01;;;;;;;4.50;4.20;;;25.90;55.30;;;;;;5026699;28;20446;-77
2021/08/22 07:04:31;;;;;;;4.27;4.07;;;26.00;55.30;;;;;;5026771;28;20402;-77
2021/08/22 07:07:02;;;;;;;3.70;3.50;;;25.90;55.30;;;;;;5027006;28;20439;-77
2021/08/22 07:09:30;;;;;;;4.10;3.80;;;25.90;55.90;;;;;;5026217;28;20443;-77
2021/08/22 07:11:58;;;;;;;3.90;3.70;;;25.90;55.30;;;;;;5026701;28;20474;-77
2021/08/22 07:14:27;;;;;;;3.80;3.60;;;25.90;55.30;;;;;;5027136;28;20486;-76
2021/08/22 07:16:56;;;;;;;3.83;3.63;;;26.00;55.30;;;;;;5026399;28;20418;-76
2021/08/22 07:19:27;;;;;;;4.53;3.57;;;25.90;55.20;;;;;;5026515;28;20479;-76
2021/08/22 07:21:55;;;;;;;7.20;3.50;;;26.00;55.40;;;;;;5026451;28;20446;-78
2021/08/22 07:24:23;;;;;;;4.07;3.87;;;26.00;55.30;;;;;;5026694;28;20443;-78
2021/08/22 07:26:52;;;;;;;3.90;3.70;;;26.00;55.30;;;;;;5026420;28;20539;-78
2021/08/22 07:29:19;;;;;;;3.90;3.60;;;26.00;55.40;;;;;;5026594;28;20430;-78
2021/08/22 07:31:48;;;;;;;3.57;3.43;;;26.00;55.30;;;;;;5026656;28;20402;-76
2021/08/22 07:34:20;;;;;;;3.63;3.43;;;26.00;55.30;;;;;;5026843;28;20515;-76
2021/08/22 07:36:48;;;;;;;4.00;3.80;;;26.00;55.30;;;;;;5026958;28;20409;-75
2021/08/22 07:39:16;;;;;;;3.70;3.50;;;26.00;55.20;;;;;;5026374;28;20410;-75
2021/08/22 07:41:44;;;;;;;3.67;3.47;;;26.00;55.30;;;;;;5026931;28;20482;-75
2021/08/22 07:44:12;;;;;;;4.17;3.80;;;26.00;55.20;;;;;;5026632;28;20449;-75
2021/08/22 07:46:40;;;;;;;3.73;3.53;;;26.00;55.20;;;;;;5026811;28;20445;-75
2021/08/22 07:49:08;;;;;;;3.93;3.70;;;26.00;55.20;;;;;;5026763;28;20510;-75
2021/08/22 07:51:37;;;;;;;4.03;3.73;;;26.00;55.20;;;;;;5026293;28;20451;-75
2021/08/22 07:54:05;;;;;;;3.90;3.70;;;26.00;55.20;;;;;;5026319;28;20422;-78
2021/08/22 07:56:33;;;;;;;3.50;3.40;;;26.00;55.20;;;;;;5026217;28;20440;-76
2021/08/22 07:59:01;;;;;;;4.07;3.87;;;26.00;55.10;;;;;;5025870;28;20428;-77
2021/08/22 08:01:29;;;;;;;3.90;3.70;;;26.00;55.10;;;;;;5024920;28;20471;-77
2021/08/22 08:03:57;;;;;;;4.27;3.97;;;26.00;55.20;;;;;;5026281;28;20465;-77
2021/08/22 08:06:26;;;;;;;3.93;3.63;;;26.00;55.10;;;;;;5025948;28;20427;-77
2021/08/22 08:08:55;;;;;;;4.67;4.20;;;26.00;55.20;;;;;;5025465;28;20445;-76
2021/08/22 08:11:23;;;;;;;3.93;3.73;;;26.00;55.20;;;;;;5025645;28;20458;-76
2021/08/22 08:13:51;;;;;;;4.10;3.80;;;26.00;55.20;;;;;;5025688;28;20410;-77
2021/08/22 08:16:19;;;;;;;4.10;3.80;;;26.00;55.30;;;;;;5025742;28;20443;-76
2021/08/22 08:18:47;;;;;;;4.30;3.90;;;26.00;55.30;;;;;;5025887;28;20498;-77
2021/08/22 08:21:15;;;;;;;4.07;3.70;;;26.00;55.40;;;;;;5025680;28;20441;-77
2021/08/22 08:23:43;;;;;;;4.57;4.27;;;26.00;55.50;;;;;;5025717;28;20398;-77
2021/08/22 08:26:13;;;;;;;4.10;3.90;;;26.00;55.50;;;;;;5026182;28;20447;-76
2021/08/22 08:28:41;;;;;;;3.97;3.67;;;26.00;55.50;;;;;;5025215;28;20429;-77
2021/08/22 08:31:10;;;;;;;4.13;3.87;;;26.00;55.70;;;;;;5026059;28;20469;-77
2021/08/22 08:33:38;;;;;;;3.77;3.47;;;26.00;55.60;;;;;;5026019;28;20454;-77
2021/08/22 08:36:06;;;;;;;4.10;3.90;;;26.00;55.50;;;;;;5025152;28;20441;-77
2021/08/22 08:38:34;;;;;;;5.13;3.87;;;26.00;55.60;;;;;;5025111;28;20472;-77
2021/08/22 08:41:02;;;;;;;3.70;3.50;;;26.00;55.60;;;;;;5025022;28;20430;-76
2021/08/22 08:43:32;;;;;;;3.93;3.73;;;26.00;55.60;;;;;;5025354;28;20442;-77
2021/08/22 08:46:00;;;;;;;3.60;3.40;;;26.00;55.60;;;;;;5025464;28;20429;-77
2021/08/22 08:48:29;;;;;;;3.47;3.30;;;26.00;55.60;;;;;;5025317;28;20440;-77
2021/08/22 08:51:02;;;;;;;3.30;3.10;;;26.00;55.60;;;;;;5025216;28;20460;-81
2021/08/22 08:53:31;;;;;;;3.37;3.20;;;26.00;55.60;;;;;;5024915;28;20441;-80
2021/08/22 08:55:59;;;;;;;8.27;3.80;;;26.00;55.60;;;;;;5025076;28;20491;-80
2021/08/22 08:58:27;;;;;;;4.43;4.03;;;26.00;55.60;;;;;;5024948;28;20418;-81
2021/08/22 09:00:57;;;;;;;3.50;3.10;;;26.00;55.60;;;;;;5025420;28;20439;-81
2021/08/22 09:03:25;;;;;;;4.23;3.83;;;26.00;55.60;;;;;;5025085;28;20471;-81
2021/08/22 09:06:39;;;;;;;4.77;3.70;;;26.00;55.60;;;;;;5025068;28;20447;-81
2021/08/22 09:09:40;;;;;;;3.93;3.63;;;26.00;55.70;;;;;;5025405;28;20451;-81
2021/08/22 09:12:54;;;;;;;4.20;3.90;;;26.00;55.60;;;;;;5023873;28;20464;-80
2021/08/22 09:16:08;;;;;;;3.63;3.33;;;26.00;55.70;;;;;;5025465;28;20532;-80
2021/08/22 09:19:12;;;;;;;4.20;3.80;;;26.00;55.70;;;;;;4963035;28;20493;-79
2021/08/22 09:22:21;;;;;;;3.90;3.60;;;26.00;55.70;;;;;;5024458;28;20517;-79
2021/08/22 09:25:29;;;;;;;3.87;3.67;;;26.00;55.70;;;;;;5024739;28;20499;-80
2021/08/22 09:28:41;;;;;;;5.23;3.80;;;26.00;55.80;;;;;;5024470;28;20485;-80
2021/08/22 09:31:47;;;;;;;3.90;3.60;;;25.90;55.70;;;;;;5011544;28;20504;-81
2021/08/22 09:34:50;;;;;;;3.67;3.47;;;26.00;55.80;;;;;;5024519;28;20410;-81
2021/08/22 09:37:52;;;;;;;3.93;3.73;;;25.90;55.80;;;;;;4992197;28;20445;-81
2021/08/22 09:40:57;;;;;;;3.87;3.57;;;25.90;55.80;;;;;;5024482;28;20418;-81
2021/08/22 09:44:03;;;;;;;3.87;3.67;;;26.00;55.90;;;;;;5024654;28;20473;-81
2021/08/22 09:47:04;;;;;;;4.50;4.13;;;26.00;55.90;;;;;;5024048;28;20474;-82
2021/08/22 09:50:15;;;;;;;4.40;4.07;;;25.90;56.00;;;;;;5024153;28;20493;-82
2021/08/22 09:59:40;;;;;;;4.20;3.90;;;26.00;56.00;;;;;;5122241;27;20557;-82
2021/08/22 10:02:34;;;;;;;4.03;3.73;;;26.00;55.90;;;;;;5102059;28;20494;-80
2021/08/22 10:05:29;;;;;;;3.97;3.67;;;26.00;55.90;;;;;;5089893;28;20506;-81
2021/08/22 10:08:05;;;;;;;3.80;3.60;;;26.00;56.40;;;;;;5101599;28;20494;-80
2021/08/22 10:10:33;;;;;;;4.40;4.10;;;26.00;55.80;;;;;;5101711;28;20458;-82
2021/08/22 10:13:01;;;;;;;3.77;3.53;;;26.10;55.80;;;;;;5101923;28;20414;-82
2021/08/22 10:15:31;;;;;;;5.10;3.67;;;26.10;55.80;;;;;;5101907;28;20484;-82
2021/08/22 10:17:59;;;;;;;3.63;3.43;;;26.10;55.80;;;;;;5101213;28;20469;-82
2021/08/22 10:20:40;;;;;;;3.10;3.00;;;26.10;55.70;;;;;;5101371;28;20501;-82
2021/08/22 10:23:44;;;;;;;3.93;3.63;;;26.10;55.70;;;;;;5101171;28;20535;-82
2021/08/22 10:26:12;;;;;;;4.00;3.70;;;26.10;55.70;;;;;;5101615;28;20531;-81
2021/08/22 10:29:02;;;;;;;3.70;3.50;;;26.20;55.60;;;;;;5101414;28;20443;-82
2021/08/22 10:32:09;;;;;;;4.70;4.30;;;26.20;55.60;;;;;;5101455;28;20463;-82
2021/08/22 10:34:38;;;;;;;3.77;3.50;;;26.20;55.60;;;;;;5101611;28;20429;-82
2021/08/22 10:37:27;;;;;;;4.17;3.60;;;26.20;55.60;;;;;;5101403;28;20535;-82
2021/08/22 10:39:57;;;;;;;4.20;3.80;;;26.20;55.60;;;;;;5100675;28;20531;-81
2021/08/22 10:42:27;;;;;;;3.60;3.40;;;26.20;55.60;;;;;;5100838;28;20443;-81
2021/08/22 10:44:55;;;;;;;3.77;3.50;;;26.20;55.60;;;;;;5101940;28;20399;-82
2021/08/22 10:47:46;;;;;;;3.37;3.17;;;26.20;55.60;;;;;;5101373;28;20497;-81
2021/08/22 10:50:16;;;;;;;3.53;3.33;;;26.30;55.70;;;;;;5101000;28;20518;-81
2021/08/22 10:52:45;;;;;;;3.67;3.47;;;26.20;55.60;;;;;;5100884;28;20419;-81
2021/08/22 10:55:30;;;;;;;4.00;3.80;;;26.30;55.50;;;;;;5101131;28;20501;-82
2021/08/22 10:57:59;;;;;;;3.80;3.50;;;26.30;55.50;;;;;;5101716;28;20525;-82
2021/08/22 11:00:28;;;;;;;3.83;3.63;;;26.30;55.40;;;;;;5100731;28;20490;-82
2021/08/22 11:02:58;;;;;;;3.83;3.63;;;26.30;55.50;;;;;;5103786;28;20410;-82
2021/08/22 11:05:28;;;;;;;4.17;3.93;;;26.30;55.40;;;;;;5103800;28;20428;-82
2021/08/22 11:07:56;;;;;;;3.63;3.37;;;26.30;55.30;;;;;;5100121;28;20431;-82
2021/08/22 11:10:24;;;;;;;3.50;3.40;;;26.30;55.40;;;;;;5087239;28;20415;-81
2021/08/22 11:12:53;;;;;;;4.00;3.70;;;26.30;55.30;;;;;;5086813;28;20427;-81
2021/08/22 11:15:23;;;;;;;3.60;3.40;;;26.30;55.30;;;;;;5087947;28;20448;-82
2021/08/22 11:17:52;;;;;;;3.63;3.43;;;26.30;55.30;;;;;;5086970;28;20447;-81
2021/08/22 11:20:23;;;;;;;3.40;3.20;;;26.30;56.00;;;;;;5087377;28;20518;-81
2021/08/22 11:22:55;;;;;;;3.40;3.20;;;26.30;55.50;;;;;;5087263;28;20483;-81
2021/08/22 11:25:26;;;;;;;4.50;4.10;;;26.40;55.50;;;;;;5087702;28;20404;-82
2021/08/22 11:28:04;;;;;;;3.57;3.37;;;26.40;55.40;;;;;;5086735;28;20494;-82
2021/08/22 11:30:32;;;;;;;3.60;3.40;;;26.50;55.40;;;;;;5088719;28;20469;-82
2021/08/22 11:33:00;;;;;;;3.30;3.13;;;26.50;55.20;;;;;;5089913;28;20433;-82
2021/08/22 11:35:30;;;;;;;3.33;3.20;;;26.50;55.20;;;;;;5091218;28;20411;-82
2021/08/22 11:37:58;;;;;;;3.63;3.43;;;26.50;55.10;;;;;;5091460;28;20443;-82
2021/08/22 11:40:26;;;;;;;3.60;3.40;;;26.50;55.10;;;;;;5089878;28;20437;-82
2021/08/22 11:42:56;;;;;;;3.90;3.70;;;26.60;55.10;;;;;;5090407;28;20419;-82
2021/08/22 11:45:25;;;;;;;3.50;3.30;;;26.60;55.00;;;;;;5093062;28;20456;-82
2021/08/22 11:48:01;;;;;;;3.47;3.27;;;26.60;55.00;;;;;;5091178;28;20395;-82
2021/08/22 11:50:36;;;;;;;3.60;3.40;;;26.60;55.00;;;;;;5091492;28;20413;-82
2021/08/22 11:53:05;;;;;;;3.67;3.47;;;26.70;55.00;;;;;;5093716;28;20407;-82
2021/08/22 11:55:33;;;;;;;3.30;3.10;;;26.70;55.00;;;;;;5092688;28;20440;-82
2021/08/22 11:58:10;;;;;;;3.80;3.50;;;26.70;54.90;;;;;;5089008;28;20542;-82
2021/08/22 12:00:39;;;;;;;4.37;4.10;;;26.80;54.90;;;;;;5090173;28;20481;-82
2021/08/22 12:03:11;;;;;;;3.60;3.40;;;26.80;54.90;;;;;;5089888;28;20404;-82
2021/08/22 12:05:53;;;;;;;3.60;3.30;;;26.80;54.80;;;;;;5089929;28;20509;-82
2021/08/22 12:08:21;;;;;;;3.40;3.20;;;26.80;54.80;;;;;;5087724;28;20468;-82
2021/08/22 12:10:49;;;;;;;3.40;3.10;;;26.90;54.70;;;;;;5087406;28;20460;-82
2021/08/22 12:13:18;;;;;;;4.03;3.30;;;26.90;54.60;;;;;;5088905;28;20461;-81
2021/08/22 12:15:46;;;;;;;3.40;3.20;;;27.00;54.80;;;;;;5088262;28;20407;-82
2021/08/22 12:18:19;;;;;;;4.20;3.80;;;27.00;54.70;;;;;;5087996;28;20439;-81
2021/08/22 12:20:48;;;;;;;3.53;3.33;;;27.10;54.70;;;;;;5085893;28;20411;-82
2021/08/22 12:23:18;;;;;;;3.70;3.50;;;27.10;54.60;;;;;;5085750;28;20449;-81
2021/08/22 12:25:46;;;;;;;3.57;3.37;;;27.20;54.60;;;;;;5085678;28;20447;-81
2021/08/22 12:28:25;;;;;;;3.80;3.40;;;27.20;54.40;;;;;;5085265;28;20483;-81
2021/08/22 12:31:07;;;;;;;3.50;3.30;;;27.20;54.50;;;;;;5085756;28;20448;-81
2021/08/22 12:33:36;;;;;;;3.67;3.47;;;27.20;54.40;;;;;;5085230;28;20436;-81
2021/08/22 12:36:05;;;;;;;3.70;3.50;;;27.20;54.50;;;;;;5085564;28;20404;-81
2021/08/22 12:38:40;;;;;;;3.60;3.40;;;27.20;54.40;;;;;;5085198;28;20469;-81
2021/08/22 12:41:43;;;;;;;3.60;3.40;;;27.20;54.40;;;;;;5084813;28;20471;-82
2021/08/22 12:44:15;;;;;;;3.50;3.20;;;27.20;54.50;;;;;;5084862;28;20506;-81
2021/08/22 12:46:43;;;;;;;3.63;3.33;;;27.20;54.50;;;;;;5084961;28;20450;-81
2021/08/22 12:49:11;;;;;;;4.00;3.80;;;27.20;54.60;;;;;;5085297;28;20429;-81
2021/08/22 12:51:45;;;;;;;3.47;3.27;;;27.20;54.70;;;;;;5085129;28;20479;-81
2021/08/22 12:54:14;;;;;;;3.67;3.47;;;27.20;54.70;;;;;;5084608;28;20420;-81
2021/08/22 12:56:44;;;;;;;3.30;3.17;;;27.10;54.80;;;;;;5084804;28;20466;-81
2021/08/22 12:59:12;;;;;;;3.43;3.30;;;27.10;54.90;;;;;;5084430;28;20488;-81
2021/08/22 13:01:40;;;;;;;3.37;3.27;;;27.00;54.80;;;;;;5084977;28;20415;-81
2021/08/22 13:04:08;;;;;;;3.53;3.33;;;27.00;54.80;;;;;;5085242;28;20437;-81
2021/08/22 13:06:36;;;;;;;3.73;3.40;;;27.00;54.90;;;;;;5085125;28;20445;-81
2021/08/22 13:09:04;;;;;;;3.23;3.13;;;27.00;54.90;;;;;;5084663;28;20415;-80
2021/08/22 13:11:34;;;;;;;3.80;3.60;;;27.00;55.00;;;;;;5084535;28;20407;-81
2021/08/22 13:14:03;;;;;;;3.23;3.03;;;27.10;55.10;;;;;;5084479;28;20506;-81
2021/08/22 13:16:31;;;;;;;3.70;3.50;;;27.10;55.00;;;;;;5084530;28;20403;-81
2021/08/22 13:18:59;;;;;;;3.40;3.30;;;27.10;55.00;;;;;;5083831;28;20439;-81